Abis Cuxhaven — PBYB — position and weather

sailwx.info

Track history (hours):
 
Tides and Currents Weather Stations Pressure Air Temp Water Temp Dewpoint Dewpoint Depression Visibility Wind Speed Wind Dir Waves Ship Positions

Abis Cuxhaven

Last reported at 2014-Aug-19 12:11 UTC. Time now 2014-Aug-20 04:56 UTC.
Position N 50°31' E 000°16'.

Length 114 m; draft 5.9 m.

Type: Cargo ship. MMSI: 246670000.

Date/timePositionNaut miles runAvg speedWind from/ knotsBaromVisibWave heightAir tempDewpointWater temp
2014-Aug-19 12:11N 50°31' E 000°16'710.0
2014-Aug-19 11:31N 50°32' E 000°27'1010.1
2014-Aug-19 10:33N 50°36' E 000°41'1010.2
2014-Aug-19 09:33N 50°42' E 000°53'28 9.1
2014-Aug-19 06:30N 51°00' E 001°27'8 8.1
2014-Aug-19 05:33N 51°06' E 001°35'9 9.1
2014-Aug-19 04:33N 51°12' E 001°45'10 9.8
2014-Aug-19 03:33N 51°20' E 001°55'8 8.1
2014-Aug-19 02:33N 51°23' E 002°07'10 9.6
2014-Aug-19 01:30N 51°22' E 002°23'1110.3
2014-Aug-19 00:27N 51°22' E 002°40'8 9.5
2014-Aug-18 23:33N 51°23' E 002°54'1010.1
2014-Aug-18 22:33N 51°24' E 003°10'1111.1
2014-Aug-18 21:33N 51°25' E 003°28'1010.4
2014-Aug-18 20:33N 51°24' E 003°44'8 7.7
2014-Aug-18 19:33N 51°26' E 003°56'8 7.8
2014-Aug-18 18:33N 51°22' E 004°07'7 6.5
2014-Aug-18 17:33N 51°20' E 004°16'4 4.1
2014-Aug-18 16:34N 51°17' E 004°20'1 0.8
2014-Aug-18 15:31N 51°17' E 004°21'0 0.0
2014-Aug-18 14:31N 51°17' E 004°21'0 0.0
2014-Aug-18 13:31N 51°17' E 004°21'0 0.0
2014-Aug-18 12:31N 51°17' E 004°21'0 0.0
2014-Aug-18 11:31N 51°17' E 004°21'0 0.0
2014-Aug-18 09:31N 51°17' E 004°21'0 0.0
2014-Aug-18 08:31N 51°17' E 004°21'0 0.0
2014-Aug-18 07:28N 51°17' E 004°21'0 0.0
2014-Aug-18 06:31N 51°17' E 004°21'0 0.0
2014-Aug-18 05:31N 51°17' E 004°21'0 0.0
2014-Aug-18 04:31N 51°17' E 004°21'0 0.0
2014-Aug-18 03:31N 51°17' E 004°21'0 0.0
2014-Aug-18 02:31N 51°17' E 004°21'0 0.0
2014-Aug-18 01:31N 51°17' E 004°21'0 0.0
2014-Aug-18 00:31N 51°17' E 004°21'0 0.0
2014-Aug-17 18:31N 51°17' E 004°21'0 0.0
2014-Aug-17 17:31N 51°17' E 004°21'0 0.0
2014-Aug-17 16:31N 51°17' E 004°21'0 0.0
2014-Aug-17 15:31N 51°17' E 004°21'0 0.0
2014-Aug-17 14:28N 51°17' E 004°21'0 0.0
2014-Aug-17 13:31N 51°17' E 004°21'0 0.0
2014-Aug-17 12:31N 51°17' E 004°21'0 0.0
2014-Aug-17 11:31N 51°17' E 004°21'0 0.0
2014-Aug-17 10:28N 51°17' E 004°21'0 0.0
2014-Aug-17 09:31N 51°17' E 004°21'0 0.0
2014-Aug-17 08:31N 51°17' E 004°21'0 0.0
2014-Aug-17 07:31N 51°17' E 004°21'0 0.0
2014-Aug-17 06:31N 51°17' E 004°21'0 0.0
2014-Aug-17 05:28N 51°17' E 004°21'0 0.0
2014-Aug-17 04:31N 51°17' E 004°21'0 0.0
2014-Aug-17 03:31N 51°17' E 004°21'0 0.0
2014-Aug-17 02:31N 51°17' E 004°21'0 0.0
2014-Aug-17 01:31N 51°17' E 004°21'0 0.0
2014-Aug-17 00:31N 51°17' E 004°21'0 0.0
2014-Aug-16 23:31N 51°17' E 004°21'0 0.0
2014-Aug-16 22:31N 51°17' E 004°21'0 0.0
2014-Aug-16 21:31N 51°17' E 004°21'0 0.0
2014-Aug-16 20:31N 51°17' E 004°21'0 0.0
2014-Aug-16 19:31N 51°17' E 004°21'0 0.0
2014-Aug-16 18:31N 51°17' E 004°21'0 0.0
2014-Aug-16 17:31N 51°17' E 004°21'0 0.0
2014-Aug-16 16:31N 51°17' E 004°21'0 0.0
2014-Aug-16 15:31N 51°17' E 004°21'0 0.0
2014-Aug-16 14:28N 51°17' E 004°21'0 0.0
2014-Aug-16 13:31N 51°17' E 004°21'0 0.0
2014-Aug-16 12:31N 51°17' E 004°21'0 0.0
2014-Aug-16 11:31N 51°17' E 004°21'0 0.0
2014-Aug-16 10:31N 51°17' E 004°21'0 0.0
2014-Aug-16 09:28N 51°17' E 004°21'0 0.0
2014-Aug-16 08:31N 51°17' E 004°21'0 0.0
2014-Aug-16 07:31N 51°17' E 004°21'0 0.0
2014-Aug-16 06:31N 51°17' E 004°21'0 0.0
2014-Aug-16 05:31N 51°17' E 004°21'0 0.0
2014-Aug-16 04:31N 51°17' E 004°21'0 0.0
2014-Aug-16 03:31N 51°17' E 004°21'0 0.0
2014-Aug-16 02:31N 51°17' E 004°21'0 0.0
2014-Aug-16 01:31N 51°17' E 004°21'0 0.0
2014-Aug-16 00:31N 51°17' E 004°21'0 0.0
2014-Aug-15 23:31N 51°17' E 004°21'0 0.0
2014-Aug-15 22:31N 51°17' E 004°21'0 0.0
2014-Aug-15 21:31N 51°17' E 004°21'0 0.0
2014-Aug-15 20:31N 51°17' E 004°21'0 0.0
2014-Aug-15 19:31N 51°17' E 004°21'0 0.0
2014-Aug-15 18:31N 51°17' E 004°21'0 0.0
2014-Aug-15 17:31N 51°17' E 004°21'0 0.0
2014-Aug-15 16:31N 51°17' E 004°21'0 0.0
2014-Aug-15 15:31N 51°17' E 004°21'0 0.0
2014-Aug-15 14:31N 51°17' E 004°21'0 0.0
2014-Aug-15 13:28N 51°17' E 004°21'0 0.0
2014-Aug-15 12:31N 51°17' E 004°21'0 0.0
2014-Aug-15 11:31N 51°17' E 004°21'0 0.0
2014-Aug-15 10:31N 51°17' E 004°21'0 0.0
2014-Aug-15 09:31N 51°17' E 004°21'0 0.0
2014-Aug-15 08:31N 51°17' E 004°21'0 0.0
2014-Aug-15 07:31N 51°17' E 004°21'0 0.0
2014-Aug-15 06:31N 51°17' E 004°21'0 0.0
2014-Aug-15 05:31N 51°17' E 004°21'1 0.6
2014-Aug-15 04:34N 51°17' E 004°21'1 1.4
2014-Aug-15 03:34N 51°17' E 004°19'8 8.0
2014-Aug-15 02:33N 51°24' E 004°11'8 8.4
2014-Aug-15 01:33N 51°24' E 003°58'10 9.6
2014-Aug-15 00:33N 51°24' E 003°42'1010.4
2014-Aug-14 23:33N 51°30' E 003°29'1211.8
2014-Aug-14 22:33N 51°40' E 003°19'61 9.5
2014-Aug-14 16:13N 52°24' E 002°12'6 9.0
2014-Aug-14 15:33N 52°29' E 002°08'9 9.0
2014-Aug-14 14:33N 52°37' E 002°01'10 9.8
2014-Aug-14 13:33N 52°46' E 001°53'1111.1
2014-Aug-14 12:33N 52°54' E 001°41'1212.1
2014-Aug-14 11:33N 53°03' E 001°28'1212.4
2014-Aug-14 10:33N 53°14' E 001°17'3812.5
2014-Aug-14 07:29N 53°46' E 000°42'1514.2
2014-Aug-14 06:24N 53°59' E 000°27'1213.6
2014-Aug-14 05:33N 54°08' E 000°16'1312.9
2014-Aug-14 04:33N 54°19' E 000°03'1212.1
2014-Aug-14 03:33N 54°29' W 000°08'1211.5
2014-Aug-14 02:33N 54°39' W 000°19'1110.8
2014-Aug-14 01:32N 54°48' W 000°30'1110.9
2014-Aug-14 00:33N 54°56' W 000°41'10 9.9
2014-Aug-13 23:33N 55°05' W 000°50'1110.7
2014-Aug-13 22:33N 55°14' W 001°01'5111.5
2014-Aug-13 18:04N 55°53' W 001°60'712.8
2014-Aug-13 17:33N 55°57' W 002°09'1312.6
2014-Aug-13 16:33N 56°03' W 002°28'1111.0
2014-Aug-13 15:33N 56°06' W 002°48'1110.8
2014-Aug-13 14:33N 56°03' W 003°06'10 9.8
2014-Aug-13 13:33N 56°00' W 003°23'9 9.0
2014-Aug-13 12:33N 56°02' W 003°39'2 1.8
2014-Aug-13 11:32N 56°02' W 003°42'0 0.0
2014-Aug-13 10:32N 56°02' W 003°42'0 0.0
2014-Aug-13 09:32N 56°02' W 003°42'0 0.0
2014-Aug-13 08:32N 56°02' W 003°42'0 0.0
2014-Aug-13 07:32N 56°02' W 003°42'0 0.0
2014-Aug-13 06:32N 56°02' W 003°42'0 0.0
2014-Aug-13 05:32N 56°02' W 003°42'0 0.0
2014-Aug-13 04:32N 56°02' W 003°42'0 0.0
2014-Aug-13 03:32N 56°02' W 003°42'0 0.0
2014-Aug-13 02:32N 56°02' W 003°42'0 0.0
2014-Aug-13 01:32N 56°02' W 003°42'0 0.0
2014-Aug-13 00:32N 56°02' W 003°42'0 0.0
2014-Aug-12 23:32N 56°02' W 003°42'0 0.0
2014-Aug-12 22:32N 56°02' W 003°42'0 0.0
2014-Aug-12 21:32N 56°02' W 003°42'0 0.0
2014-Aug-12 20:32N 56°02' W 003°42'0 0.0
2014-Aug-12 19:32N 56°02' W 003°42'0 0.0
2014-Aug-12 18:32N 56°02' W 003°42'0 0.0
2014-Aug-12 17:32N 56°02' W 003°42'0 0.0
2014-Aug-12 16:32N 56°02' W 003°42'0 0.0
2014-Aug-12 15:32N 56°02' W 003°42'0 0.0
2014-Aug-12 14:32N 56°02' W 003°42'0 0.0
2014-Aug-12 13:32N 56°02' W 003°42'0 0.0
2014-Aug-12 12:32N 56°02' W 003°42'0 0.0
2014-Aug-12 11:32N 56°02' W 003°42'0 0.0
2014-Aug-12 10:32N 56°02' W 003°42'0 0.0
2014-Aug-12 09:32N 56°02' W 003°42'0 0.0
2014-Aug-12 08:32N 56°02' W 003°42'0 0.0
2014-Aug-12 07:32N 56°02' W 003°42'0 0.0
2014-Aug-12 06:32N 56°02' W 003°42'0 0.0
2014-Aug-12 05:32N 56°02' W 003°42'0 0.0
2014-Aug-12 04:32N 56°02' W 003°42'0 0.0
2014-Aug-12 03:32N 56°02' W 003°42'0 0.0
2014-Aug-12 02:32N 56°02' W 003°42'0 0.0
2014-Aug-12 01:32N 56°02' W 003°42'0 0.0
2014-Aug-12 00:32N 56°02' W 003°42'0 0.0
2014-Aug-11 23:32N 56°02' W 003°42'0 0.0
2014-Aug-11 22:32N 56°02' W 003°42'0 0.0
2014-Aug-11 21:32N 56°02' W 003°42'0 0.0
2014-Aug-11 20:32N 56°02' W 003°42'0 0.0
2014-Aug-11 19:32N 56°02' W 003°42'0 0.0
2014-Aug-11 18:32N 56°02' W 003°42'0 0.0
2014-Aug-11 17:32N 56°02' W 003°42'0 0.0
2014-Aug-11 16:32N 56°02' W 003°42'0 0.0
2014-Aug-11 15:32N 56°02' W 003°42'0 0.0
2014-Aug-11 14:32N 56°02' W 003°42'0 0.0
2014-Aug-11 13:32N 56°02' W 003°42'0 0.0
2014-Aug-11 12:32N 56°02' W 003°42'0 0.0
2014-Aug-11 11:32N 56°02' W 003°42'0 0.0
2014-Aug-11 10:32N 56°02' W 003°42'0 0.0
2014-Aug-11 09:32N 56°02' W 003°42'0 0.0
2014-Aug-11 08:32N 56°02' W 003°42'0 0.0
2014-Aug-11 07:32N 56°02' W 003°42'0 0.0
2014-Aug-11 06:32N 56°02' W 003°42'0 0.0
2014-Aug-11 05:32N 56°02' W 003°42'0 0.0
2014-Aug-11 04:32N 56°02' W 003°42'0 0.0
2014-Aug-11 03:32N 56°02' W 003°42'0 0.0
2014-Aug-11 02:32N 56°02' W 003°42'0 0.0
2014-Aug-11 01:32N 56°02' W 003°42'0 0.0
2014-Aug-11 00:32N 56°02' W 003°42'0 0.0
2014-Aug-10 23:32N 56°02' W 003°42'0 0.0
2014-Aug-10 22:32N 56°02' W 003°42'0 0.0
2014-Aug-10 21:32N 56°02' W 003°42'0 0.0
2014-Aug-10 20:32N 56°02' W 003°42'0 0.0
2014-Aug-10 19:32N 56°02' W 003°42'0 0.0
2014-Aug-10 18:32N 56°02' W 003°42'0 0.0
2014-Aug-10 17:32N 56°02' W 003°42'0 0.0
2014-Aug-10 16:32N 56°02' W 003°42'0 0.0
2014-Aug-10 15:32N 56°02' W 003°42'0 0.0
2014-Aug-10 14:32N 56°02' W 003°42'0 0.0
2014-Aug-10 13:32N 56°02' W 003°42'0 0.0
2014-Aug-10 12:32N 56°02' W 003°42'0 0.0
2014-Aug-10 11:32N 56°02' W 003°42'0 0.0
2014-Aug-10 10:32N 56°02' W 003°42'0 0.0
2014-Aug-10 09:32N 56°02' W 003°42'0 0.0
2014-Aug-10 08:32N 56°02' W 003°42'0 0.0
2014-Aug-10 07:32N 56°02' W 003°42'0 0.0
2014-Aug-10 06:32N 56°02' W 003°42'0 0.0
2014-Aug-10 05:32N 56°02' W 003°42'0 0.0
2014-Aug-10 04:32N 56°02' W 003°42'0 0.0
2014-Aug-10 03:32N 56°02' W 003°42'0 0.0
2014-Aug-10 02:32N 56°02' W 003°42'0 0.0
2014-Aug-10 01:32N 56°02' W 003°42'0 0.0
2014-Aug-10 00:32N 56°02' W 003°42'0 0.0
2014-Aug-09 23:32N 56°02' W 003°42'0 0.0
2014-Aug-09 22:29N 56°02' W 003°42'0 0.0
2014-Aug-09 21:32N 56°02' W 003°42'0 0.0
2014-Aug-09 20:32N 56°02' W 003°42'0 0.0
2014-Aug-09 19:32N 56°02' W 003°42'0 0.0
2014-Aug-09 18:32N 56°02' W 003°42'0 0.0
2014-Aug-09 17:32N 56°02' W 003°42'0 0.0
2014-Aug-09 16:32N 56°02' W 003°42'0 0.0
2014-Aug-09 15:32N 56°02' W 003°42'0 0.0
2014-Aug-09 14:32N 56°02' W 003°42'0 0.0
2014-Aug-09 13:32N 56°02' W 003°42'0 0.0
2014-Aug-09 12:32N 56°02' W 003°42'  
Track history (hours):
 
Tides and Currents Weather Stations Pressure Air Temp Water Temp Dewpoint Dewpoint Depression Visibility Wind Speed Wind Dir Waves Ship Positions

Abis Cuxhaven

Last reported at 2014-Aug-19 12:11 UTC. Time now 2014-Aug-20 04:56 UTC.
Position N 50°31' E 000°16'.

Length 114 m; draft 5.9 m.

Type: Cargo ship. MMSI: 246670000.

Date/timePositionNaut miles runAvg speedWind from/ knotsBaromVisibWave heightAir tempDewpointWater temp
2014-Aug-19 12:11N 50°31' E 000°16'710.0
2014-Aug-19 11:31N 50°32' E 000°27'1010.1
2014-Aug-19 10:33N 50°36' E 000°41'1010.2
2014-Aug-19 09:33N 50°42' E 000°53'28 9.1
2014-Aug-19 06:30N 51°00' E 001°27'8 8.1
2014-Aug-19 05:33N 51°06' E 001°35'9 9.1
2014-Aug-19 04:33N 51°12' E 001°45'10 9.8
2014-Aug-19 03:33N 51°20' E 001°55'8 8.1
2014-Aug-19 02:33N 51°23' E 002°07'10 9.6
2014-Aug-19 01:30N 51°22' E 002°23'1110.3
2014-Aug-19 00:27N 51°22' E 002°40'8 9.5
2014-Aug-18 23:33N 51°23' E 002°54'1010.1
2014-Aug-18 22:33N 51°24' E 003°10'1111.1
2014-Aug-18 21:33N 51°25' E 003°28'1010.4
2014-Aug-18 20:33N 51°24' E 003°44'8 7.7
2014-Aug-18 19:33N 51°26' E 003°56'8 7.8
2014-Aug-18 18:33N 51°22' E 004°07'7 6.5
2014-Aug-18 17:33N 51°20' E 004°16'4 4.1
2014-Aug-18 16:34N 51°17' E 004°20'1 0.8
2014-Aug-18 15:31N 51°17' E 004°21'0 0.0
2014-Aug-18 14:31N 51°17' E 004°21'0 0.0
2014-Aug-18 13:31N 51°17' E 004°21'0 0.0
2014-Aug-18 12:31N 51°17' E 004°21'0 0.0
2014-Aug-18 11:31N 51°17' E 004°21'0 0.0
2014-Aug-18 09:31N 51°17' E 004°21'0 0.0
2014-Aug-18 08:31N 51°17' E 004°21'0 0.0
2014-Aug-18 07:28N 51°17' E 004°21'0 0.0
2014-Aug-18 06:31N 51°17' E 004°21'0 0.0
2014-Aug-18 05:31N 51°17' E 004°21'0 0.0
2014-Aug-18 04:31N 51°17' E 004°21'0 0.0
2014-Aug-18 03:31N 51°17' E 004°21'0 0.0
2014-Aug-18 02:31N 51°17' E 004°21'0 0.0
2014-Aug-18 01:31N 51°17' E 004°21'0 0.0
2014-Aug-18 00:31N 51°17' E 004°21'0 0.0
2014-Aug-17 18:31N 51°17' E 004°21'0 0.0
2014-Aug-17 17:31N 51°17' E 004°21'0 0.0
2014-Aug-17 16:31N 51°17' E 004°21'0 0.0
2014-Aug-17 15:31N 51°17' E 004°21'0 0.0
2014-Aug-17 14:28N 51°17' E 004°21'0 0.0
2014-Aug-17 13:31N 51°17' E 004°21'0 0.0
2014-Aug-17 12:31N 51°17' E 004°21'0 0.0
2014-Aug-17 11:31N 51°17' E 004°21'0 0.0
2014-Aug-17 10:28N 51°17' E 004°21'0 0.0
2014-Aug-17 09:31N 51°17' E 004°21'0 0.0
2014-Aug-17 08:31N 51°17' E 004°21'0 0.0
2014-Aug-17 07:31N 51°17' E 004°21'0 0.0
2014-Aug-17 06:31N 51°17' E 004°21'0 0.0
2014-Aug-17 05:28N 51°17' E 004°21'0 0.0
2014-Aug-17 04:31N 51°17' E 004°21'0 0.0
2014-Aug-17 03:31N 51°17' E 004°21'0 0.0
2014-Aug-17 02:31N 51°17' E 004°21'0 0.0
2014-Aug-17 01:31N 51°17' E 004°21'0 0.0
2014-Aug-17 00:31N 51°17' E 004°21'0 0.0
2014-Aug-16 23:31N 51°17' E 004°21'0 0.0
2014-Aug-16 22:31N 51°17' E 004°21'0 0.0
2014-Aug-16 21:31N 51°17' E 004°21'0 0.0
2014-Aug-16 20:31N 51°17' E 004°21'0 0.0
2014-Aug-16 19:31N 51°17' E 004°21'0 0.0
2014-Aug-16 18:31N 51°17' E 004°21'0 0.0
2014-Aug-16 17:31N 51°17' E 004°21'0 0.0
2014-Aug-16 16:31N 51°17' E 004°21'0 0.0
2014-Aug-16 15:31N 51°17' E 004°21'0 0.0
2014-Aug-16 14:28N 51°17' E 004°21'0 0.0
2014-Aug-16 13:31N 51°17' E 004°21'0 0.0
2014-Aug-16 12:31N 51°17' E 004°21'0 0.0
2014-Aug-16 11:31N 51°17' E 004°21'0 0.0
2014-Aug-16 10:31N 51°17' E 004°21'0 0.0
2014-Aug-16 09:28N 51°17' E 004°21'0 0.0
2014-Aug-16 08:31N 51°17' E 004°21'0 0.0
2014-Aug-16 07:31N 51°17' E 004°21'0 0.0
2014-Aug-16 06:31N 51°17' E 004°21'0 0.0
2014-Aug-16 05:31N 51°17' E 004°21'0 0.0
2014-Aug-16 04:31N 51°17' E 004°21'0 0.0
2014-Aug-16 03:31N 51°17' E 004°21'0 0.0
2014-Aug-16 02:31N 51°17' E 004°21'0 0.0
2014-Aug-16 01:31N 51°17' E 004°21'0 0.0
2014-Aug-16 00:31N 51°17' E 004°21'0 0.0
2014-Aug-15 23:31N 51°17' E 004°21'0 0.0
2014-Aug-15 22:31N 51°17' E 004°21'0 0.0
2014-Aug-15 21:31N 51°17' E 004°21'0 0.0
2014-Aug-15 20:31N 51°17' E 004°21'0 0.0
2014-Aug-15 19:31N 51°17' E 004°21'0 0.0
2014-Aug-15 18:31N 51°17' E 004°21'0 0.0
2014-Aug-15 17:31N 51°17' E 004°21'0 0.0
2014-Aug-15 16:31N 51°17' E 004°21'0 0.0
2014-Aug-15 15:31N 51°17' E 004°21'0 0.0
2014-Aug-15 14:31N 51°17' E 004°21'0 0.0
2014-Aug-15 13:28N 51°17' E 004°21'0 0.0
2014-Aug-15 12:31N 51°17' E 004°21'0 0.0
2014-Aug-15 11:31N 51°17' E 004°21'0 0.0
2014-Aug-15 10:31N 51°17' E 004°21'0 0.0
2014-Aug-15 09:31N 51°17' E 004°21'0 0.0
2014-Aug-15 08:31N 51°17' E 004°21'0 0.0
2014-Aug-15 07:31N 51°17' E 004°21'0 0.0
2014-Aug-15 06:31N 51°17' E 004°21'0 0.0
2014-Aug-15 05:31N 51°17' E 004°21'1 0.6
2014-Aug-15 04:34N 51°17' E 004°21'1 1.4
2014-Aug-15 03:34N 51°17' E 004°19'8 8.0
2014-Aug-15 02:33N 51°24' E 004°11'8 8.4
2014-Aug-15 01:33N 51°24' E 003°58'10 9.6
2014-Aug-15 00:33N 51°24' E 003°42'1010.4
2014-Aug-14 23:33N 51°30' E 003°29'1211.8
2014-Aug-14 22:33N 51°40' E 003°19'61 9.5
2014-Aug-14 16:13N 52°24' E 002°12'6 9.0
2014-Aug-14 15:33N 52°29' E 002°08'9 9.0
2014-Aug-14 14:33N 52°37' E 002°01'10 9.8
2014-Aug-14 13:33N 52°46' E 001°53'1111.1
2014-Aug-14 12:33N 52°54' E 001°41'1212.1
2014-Aug-14 11:33N 53°03' E 001°28'1212.4
2014-Aug-14 10:33N 53°14' E 001°17'3812.5
2014-Aug-14 07:29N 53°46' E 000°42'1514.2
2014-Aug-14 06:24N 53°59' E 000°27'1213.6
2014-Aug-14 05:33N 54°08' E 000°16'1312.9
2014-Aug-14 04:33N 54°19' E 000°03'1212.1
2014-Aug-14 03:33N 54°29' W 000°08'1211.5
2014-Aug-14 02:33N 54°39' W 000°19'1110.8
2014-Aug-14 01:32N 54°48' W 000°30'1110.9
2014-Aug-14 00:33N 54°56' W 000°41'10 9.9
2014-Aug-13 23:33N 55°05' W 000°50'1110.7
2014-Aug-13 22:33N 55°14' W 001°01'5111.5
2014-Aug-13 18:04N 55°53' W 001°60'712.8
2014-Aug-13 17:33N 55°57' W 002°09'1312.6
2014-Aug-13 16:33N 56°03' W 002°28'1111.0
2014-Aug-13 15:33N 56°06' W 002°48'1110.8
2014-Aug-13 14:33N 56°03' W 003°06'10 9.8
2014-Aug-13 13:33N 56°00' W 003°23'9 9.0
2014-Aug-13 12:33N 56°02' W 003°39'2 1.8
2014-Aug-13 11:32N 56°02' W 003°42'0 0.0
2014-Aug-13 10:32N 56°02' W 003°42'0 0.0
2014-Aug-13 09:32N 56°02' W 003°42'0 0.0
2014-Aug-13 08:32N 56°02' W 003°42'0 0.0
2014-Aug-13 07:32N 56°02' W 003°42'0 0.0
2014-Aug-13 06:32N 56°02' W 003°42'0 0.0
2014-Aug-13 05:32N 56°02' W 003°42'0 0.0
2014-Aug-13 04:32N 56°02' W 003°42'0 0.0
2014-Aug-13 03:32N 56°02' W 003°42'0 0.0
2014-Aug-13 02:32N 56°02' W 003°42'0 0.0
2014-Aug-13 01:32N 56°02' W 003°42'0 0.0
2014-Aug-13 00:32N 56°02' W 003°42'0 0.0
2014-Aug-12 23:32N 56°02' W 003°42'0 0.0
2014-Aug-12 22:32N 56°02' W 003°42'0 0.0
2014-Aug-12 21:32N 56°02' W 003°42'0 0.0
2014-Aug-12 20:32N 56°02' W 003°42'0 0.0
2014-Aug-12 19:32N 56°02' W 003°42'0 0.0
2014-Aug-12 18:32N 56°02' W 003°42'0 0.0
2014-Aug-12 17:32N 56°02' W 003°42'0 0.0
2014-Aug-12 16:32N 56°02' W 003°42'0 0.0
2014-Aug-12 15:32N 56°02' W 003°42'0 0.0
2014-Aug-12 14:32N 56°02' W 003°42'0 0.0
2014-Aug-12 13:32N 56°02' W 003°42'0 0.0
2014-Aug-12 12:32N 56°02' W 003°42'0 0.0
2014-Aug-12 11:32N 56°02' W 003°42'0 0.0
2014-Aug-12 10:32N 56°02' W 003°42'0 0.0
2014-Aug-12 09:32N 56°02' W 003°42'0 0.0
2014-Aug-12 08:32N 56°02' W 003°42'0 0.0
2014-Aug-12 07:32N 56°02' W 003°42'0 0.0
2014-Aug-12 06:32N 56°02' W 003°42'0 0.0
2014-Aug-12 05:32N 56°02' W 003°42'0 0.0
2014-Aug-12 04:32N 56°02' W 003°42'0 0.0
2014-Aug-12 03:32N 56°02' W 003°42'0 0.0
2014-Aug-12 02:32N 56°02' W 003°42'0 0.0
2014-Aug-12 01:32N 56°02' W 003°42'0 0.0
2014-Aug-12 00:32N 56°02' W 003°42'0 0.0
2014-Aug-11 23:32N 56°02' W 003°42'0 0.0
2014-Aug-11 22:32N 56°02' W 003°42'0 0.0
2014-Aug-11 21:32N 56°02' W 003°42'0 0.0
2014-Aug-11 20:32N 56°02' W 003°42'0 0.0
2014-Aug-11 19:32N 56°02' W 003°42'0 0.0
2014-Aug-11 18:32N 56°02' W 003°42'0 0.0
2014-Aug-11 17:32N 56°02' W 003°42'0 0.0
2014-Aug-11 16:32N 56°02' W 003°42'0 0.0
2014-Aug-11 15:32N 56°02' W 003°42'0 0.0
2014-Aug-11 14:32N 56°02' W 003°42'0 0.0
2014-Aug-11 13:32N 56°02' W 003°42'0 0.0
2014-Aug-11 12:32N 56°02' W 003°42'0 0.0
2014-Aug-11 11:32N 56°02' W 003°42'0 0.0
2014-Aug-11 10:32N 56°02' W 003°42'0 0.0
2014-Aug-11 09:32N 56°02' W 003°42'0 0.0
2014-Aug-11 08:32N 56°02' W 003°42'0 0.0
2014-Aug-11 07:32N 56°02' W 003°42'0 0.0
2014-Aug-11 06:32N 56°02' W 003°42'0 0.0
2014-Aug-11 05:32N 56°02' W 003°42'0 0.0
2014-Aug-11 04:32N 56°02' W 003°42'0 0.0
2014-Aug-11 03:32N 56°02' W 003°42'0 0.0
2014-Aug-11 02:32N 56°02' W 003°42'0 0.0
2014-Aug-11 01:32N 56°02' W 003°42'0 0.0
2014-Aug-11 00:32N 56°02' W 003°42'0 0.0
2014-Aug-10 23:32N 56°02' W 003°42'0 0.0
2014-Aug-10 22:32N 56°02' W 003°42'0 0.0
2014-Aug-10 21:32N 56°02' W 003°42'0 0.0
2014-Aug-10 20:32N 56°02' W 003°42'0 0.0
2014-Aug-10 19:32N 56°02' W 003°42'0 0.0
2014-Aug-10 18:32N 56°02' W 003°42'0 0.0
2014-Aug-10 17:32N 56°02' W 003°42'0 0.0
2014-Aug-10 16:32N 56°02' W 003°42'0 0.0
2014-Aug-10 15:32N 56°02' W 003°42'0 0.0
2014-Aug-10 14:32N 56°02' W 003°42'0 0.0
2014-Aug-10 13:32N 56°02' W 003°42'0 0.0
2014-Aug-10 12:32N 56°02' W 003°42'0 0.0
2014-Aug-10 11:32N 56°02' W 003°42'0 0.0
2014-Aug-10 10:32N 56°02' W 003°42'0 0.0
2014-Aug-10 09:32N 56°02' W 003°42'0 0.0
2014-Aug-10 08:32N 56°02' W 003°42'0 0.0
2014-Aug-10 07:32N 56°02' W 003°42'0 0.0
2014-Aug-10 06:32N 56°02' W 003°42'0 0.0
2014-Aug-10 05:32N 56°02' W 003°42'0 0.0
2014-Aug-10 04:32N 56°02' W 003°42'0 0.0
2014-Aug-10 03:32N 56°02' W 003°42'0 0.0
2014-Aug-10 02:32N 56°02' W 003°42'0 0.0
2014-Aug-10 01:32N 56°02' W 003°42'0 0.0
2014-Aug-10 00:32N 56°02' W 003°42'0 0.0
2014-Aug-09 23:32N 56°02' W 003°42'0 0.0
2014-Aug-09 22:29N 56°02' W 003°42'0 0.0
2014-Aug-09 21:32N 56°02' W 003°42'0 0.0
2014-Aug-09 20:32N 56°02' W 003°42'0 0.0
2014-Aug-09 19:32N 56°02' W 003°42'0 0.0
2014-Aug-09 18:32N 56°02' W 003°42'0 0.0
2014-Aug-09 17:32N 56°02' W 003°42'0 0.0
2014-Aug-09 16:32N 56°02' W 003°42'0 0.0
2014-Aug-09 15:32N 56°02' W 003°42'0 0.0
2014-Aug-09 14:32N 56°02' W 003°42'0 0.0
2014-Aug-09 13:32N 56°02' W 003°42'0 0.0
2014-Aug-09 12:32N 56°02' W 003°42'  

Dump ship's entire track history